Time;durP1;ratioP1;P1;durP2;ratioP2;P2;SDS_P1;SDS_P2;PMS_P1;PMS_P2;Temp;Humidity;BMP_temperature;BMP_pressure;BME280_temperature;BME280_humidity;BME280_pressure;Samples;Min_cycle;Max_cycle;Signal;HPM_P1;HPM_P2
2021/06/22 00:00:12;;;;;;;0.40;0.40;;;;;;;17.13;87.96;96369.03;29396;224;63005;-56
2021/06/22 00:00:43;;;;;;;0.40;0.40;;;;;;;17.14;88.09;96380.78;29396;208;63009;-63
2021/06/22 00:01:18;;;;;;;0.45;0.45;;;;;;;17.13;88.41;96377.25;29396;197;63005;-64
2021/06/22 00:01:49;;;;;;;0.40;0.40;;;;;;;17.11;88.41;96365.84;29396;291;63009;-63
2021/06/22 00:02:21;;;;;;;0.50;0.50;;;;;;;17.09;88.71;96368.94;29396;197;63005;-56
2021/06/22 00:02:53;;;;;;;0.40;0.40;;;;;;;17.09;88.65;96368.13;29395;205;64013;-63
2021/06/22 00:03:24;;;;;;;0.50;0.50;;;;;;;17.09;88.53;96370.88;29395;261;64009;-64
2021/06/22 00:03:55;;;;;;;0.40;0.40;;;;;;;17.09;88.46;96374.41;29396;216;63017;-56
2021/06/22 00:04:27;;;;;;;0.50;0.50;;;;;;;17.08;88.54;96372.00;29396;236;63004;-57
2021/06/22 00:04:58;;;;;;;0.40;0.40;;;;;;;17.10;88.28;96369.72;29396;224;63009;-64
2021/06/22 00:05:32;;;;;;;0.43;0.43;;;;;;;17.10;88.54;96369.72;29396;262;63004;-56
2021/06/22 00:06:05;;;;;;;0.40;0.40;;;;;;;17.12;88.41;96377.59;29396;220;63008;-66
2021/06/22 00:06:36;;;;;;;0.50;0.50;;;;;;;17.12;88.56;96378.41;29396;203;63005;-65
2021/06/22 00:07:08;;;;;;;0.40;0.40;;;;;;;17.13;88.27;96369.03;29396;229;63009;-64
2021/06/22 00:07:39;;;;;;;0.40;0.40;;;;;;;17.14;88.64;96378.06;29396;210;63005;-64
2021/06/22 00:08:10;;;;;;;0.50;0.50;;;;;;;17.14;88.34;96378.84;29396;260;63009;-65
2021/06/22 00:08:42;;;;;;;0.43;0.43;;;;;;;17.13;88.16;96380.00;29395;214;64009;-64
2021/06/22 00:09:13;;;;;;;0.47;0.47;;;;;;;17.13;88.17;96385.47;29396;215;63009;-56
2021/06/22 00:09:44;;;;;;;0.40;0.40;;;;;;;17.13;88.09;96380.00;29396;222;63005;-64
2021/06/22 00:10:19;;;;;;;0.50;0.50;;;;;;;17.14;88.39;96380.78;29396;245;63009;-56
2021/06/22 00:10:53;;;;;;;0.40;0.40;;;;;;;17.14;88.37;96380.78;29396;202;63004;-64
2021/06/22 00:11:24;;;;;;;0.40;0.40;;;;;;;17.13;88.55;96380.00;29396;231;63009;-56
2021/06/22 00:11:55;;;;;;;0.40;0.40;;;;;;;17.15;88.15;96387.87;29395;236;64009;-56
2021/06/22 00:12:26;;;;;;;0.50;0.50;;;;;;;17.14;88.08;96378.84;29396;202;63009;-56
2021/06/22 00:12:59;;;;;;;0.50;0.50;;;;;;;17.16;88.36;96384.78;29396;229;63004;-56
2021/06/22 00:13:30;;;;;;;0.40;0.40;;;;;;;17.17;88.21;96389.13;29395;213;64013;-56
2021/06/22 00:14:01;;;;;;;0.40;0.40;;;;;;;17.18;88.29;96382.50;29396;234;63004;-62
2021/06/22 00:14:33;;;;;;;0.40;0.40;;;;;;;17.19;88.12;96386.84;29396;232;63009;-64
2021/06/22 00:15:07;;;;;;;0.40;0.40;;;;;;;17.21;88.32;96386.50;29396;211;63005;-55
2021/06/22 00:15:38;;;;;;;0.50;0.50;;;;;;;17.22;87.86;96388.09;29396;249;63009;-64
2021/06/22 00:16:09;;;;;;;0.40;0.40;;;;;;;17.22;88.06;96383.41;29396;207;63009;-64
2021/06/22 00:16:40;;;;;;;0.40;0.40;;;;;;;17.23;88.09;96378.72;29396;203;63009;-56
2021/06/22 00:17:11;;;;;;;0.40;0.40;;;;;;;17.26;87.82;96389.00;29395;197;64009;-56
2021/06/22 00:17:43;;;;;;;0.50;0.50;;;;;;;17.31;87.50;96394.22;29397;222;63009;-65
2021/06/22 00:18:15;;;;;;;0.50;0.50;;;;;;;17.30;87.10;96390.69;29397;211;63004;-56
2021/06/22 00:18:48;;;;;;;0.50;0.50;;;;;;;17.30;87.29;96384.41;29397;210;63016;-55
2021/06/22 00:19:19;;;;;;;0.40;0.40;;;;;;;17.29;87.22;96394.59;29397;246;63004;-56
2021/06/22 00:19:50;;;;;;;0.40;0.40;;;;;;;17.28;87.00;96387.50;29397;233;63009;-56
2021/06/22 00:20:23;;;;;;;0.40;0.40;;;;;;;17.28;87.11;96398.47;29397;241;63014;-56
2021/06/22 00:20:54;;;;;;;0.40;0.40;;;;;;;17.27;86.76;96396.06;29397;197;63008;-62
2021/06/22 00:21:25;;;;;;;0.40;0.40;;;;;;;17.26;87.08;96394.47;29397;203;63004;-64
2021/06/22 00:21:57;;;;;;;0.40;0.40;;;;;;;17.27;86.99;96401.56;29395;216;63015;-64
2021/06/22 00:22:28;;;;;;;0.40;0.40;;;;;;;17.25;86.98;96396.41;29394;215;64009;-56
2021/06/22 00:23:00;;;;;;;0.40;0.40;;;;;;;17.24;87.00;96392.09;29395;240;63009;-64
2021/06/22 00:23:31;;;;;;;0.40;0.40;;;;;;;17.22;87.39;96394.38;29395;202;63005;-64
2021/06/22 00:24:03;;;;;;;0.50;0.50;;;;;;;17.19;87.34;96395.06;29395;226;63018;-63
2021/06/22 00:24:35;;;;;;;0.40;0.40;;;;;;;17.21;87.50;96386.50;29396;249;63005;-56
2021/06/22 00:25:08;;;;;;;0.40;0.40;;;;;;;17.18;87.61;96390.72;29393;235;64013;-65
2021/06/22 00:25:39;;;;;;;0.40;0.40;;;;;;;17.16;87.75;96390.28;29394;210;63005;-65
2021/06/22 00:26:11;;;;;;;0.40;0.40;;;;;;;17.17;87.82;96388.31;29395;308;63009;-64
2021/06/22 00:26:43;;;;;;;0.50;0.50;;;;;;;17.16;87.93;96387.53;29394;269;63004;-56
2021/06/22 00:27:15;;;;;;;0.40;0.40;;;;;;;17.15;87.73;96393.34;29395;208;63009;-61
2021/06/22 00:27:48;;;;;;;0.40;0.40;;;;;;;17.11;88.23;96387.78;29395;239;63008;-55
2021/06/22 00:28:20;;;;;;;0.50;0.50;;;;;;;17.11;88.03;96387.78;29395;234;63008;-63
2021/06/22 00:28:51;;;;;;;0.45;0.45;;;;;;;17.11;88.75;96386.97;29395;261;63004;-63
2021/06/22 00:29:23;;;;;;;0.50;0.50;;;;;;;17.08;88.56;96382.97;29395;206;63009;-64
2021/06/22 00:29:55;;;;;;;0.40;0.40;;;;;;;17.08;88.15;96388.47;29393;216;64009;-56
2021/06/22 00:30:27;;;;;;;0.40;0.40;;;;;;;17.07;88.20;96386.88;29395;203;63009;-63
2021/06/22 00:30:58;;;;;;;0.40;0.40;;;;;;;17.06;88.49;96385.25;29395;214;63005;-59
2021/06/22 00:31:30;;;;;;;0.40;0.40;;;;;;;17.06;88.08;96383.31;29395;230;63009;-63
2021/06/22 00:32:04;;;;;;;0.40;0.40;;;;;;;17.06;88.47;96385.25;29394;202;63005;-56
2021/06/22 00:32:36;;;;;;;0.50;0.50;;;;;;;17.05;88.35;96384.47;29395;209;63009;-63
2021/06/22 00:33:07;;;;;;;0.50;0.50;;;;;;;17.04;88.45;96377.38;29395;197;63005;-64
2021/06/22 00:33:39;;;;;;;0.50;0.50;;;;;;;17.03;88.48;96375.78;29393;248;64013;-63
2021/06/22 00:34:10;;;;;;;0.50;0.50;;;;;;;17.03;88.37;96380.47;29395;290;63004;-63
2021/06/22 00:34:41;;;;;;;0.50;0.50;;;;;;;17.01;88.43;96377.28;29395;216;63009;-63
2021/06/22 00:35:13;;;;;;;0.45;0.45;;;;;;;17.00;88.77;96375.69;29395;214;63007;-64
2021/06/22 00:35:44;;;;;;;0.40;0.40;;;;;;;16.97;88.69;96376.41;29395;196;63009;-61
2021/06/22 00:36:16;;;;;;;0.40;0.40;;;;;;;16.96;88.60;96374.81;29395;235;63018;-57
2021/06/22 00:36:47;;;;;;;0.50;0.50;;;;;;;16.96;88.33;96374.81;29395;198;63009;-57
2021/06/22 00:37:18;;;;;;;0.50;0.50;;;;;;;16.94;88.56;96377.09;29395;203;63005;-56
2021/06/22 00:37:50;;;;;;;0.40;0.40;;;;;;;16.95;88.25;96370.47;29395;225;63009;-63
2021/06/22 00:38:22;;;;;;;1.25;1.25;;;;;;;16.94;88.51;96379.84;29395;268;63005;-64
2021/06/22 00:38:53;;;;;;;0.40;0.40;;;;;;;16.93;88.28;96378.22;29393;216;64013;-62
2021/06/22 00:39:25;;;;;;;0.40;0.40;;;;;;;16.93;88.40;96383.72;29395;237;63005;-63
2021/06/22 00:39:56;;;;;;;0.40;0.40;;;;;;;16.93;88.18;96380.97;29395;235;63009;-63
2021/06/22 00:40:28;;;;;;;0.50;0.50;;;;;;;16.91;88.16;96381.31;29395;197;63005;-57
2021/06/22 00:40:59;;;;;;;0.47;0.47;;;;;;;16.92;88.10;96382.13;29393;234;64013;-57
2021/06/22 00:41:31;;;;;;;0.50;0.50;;;;;;;16.91;88.42;96389.53;29395;208;63004;-56
2021/06/22 00:42:03;;;;;;;0.40;0.40;;;;;;;16.91;88.25;96395.03;29395;266;63009;-59
2021/06/22 00:42:35;;;;;;;0.50;0.50;;;;;;;16.91;88.27;96397.75;29393;197;64009;-63
2021/06/22 00:43:07;;;;;;;0.80;0.80;;;;;;;16.91;88.18;96388.75;29395;196;63009;-64
2021/06/22 00:43:39;;;;;;;0.40;0.40;;;;;;;16.90;88.29;96398.09;29393;235;64008;-63
2021/06/22 00:44:11;;;;;;;0.50;0.50;;;;;;;16.89;88.20;96385.53;29395;226;63008;-64
2021/06/22 00:45:03;;;;;;;0.50;0.50;;;;;;;16.89;88.44;96388.28;29395;238;63005;-56
2021/06/22 00:45:35;;;;;;;0.60;0.60;;;;;;;16.88;88.49;96389.44;29393;209;64014;-63
2021/06/22 00:46:06;;;;;;;0.40;0.40;;;;;;;16.91;88.21;96388.75;29395;202;63005;-58
2021/06/22 00:46:38;;;;;;;0.40;0.40;;;;;;;16.90;88.13;96387.16;29395;217;63009;-57
2021/06/22 00:47:10;;;;;;;0.50;0.50;;;;;;;16.89;87.72;96385.53;29395;262;63005;-58
2021/06/22 00:47:42;;;;;;;0.50;0.50;;;;;;;16.88;87.80;96383.94;29395;263;63015;-62
2021/06/22 00:48:13;;;;;;;0.43;0.43;;;;;;;16.87;87.73;96382.34;29393;205;64009;-57
2021/06/22 00:48:47;;;;;;;0.40;0.40;;;;;;;16.86;87.94;96386.25;29395;236;63009;-56
2021/06/22 00:49:18;;;;;;;0.50;0.50;;;;;;;16.84;88.15;96380.31;29395;218;63004;-57
2021/06/22 00:49:52;;;;;;;0.40;0.40;;;;;;;16.82;88.11;96385.31;29395;218;63009;-64
2021/06/22 00:50:25;;;;;;;0.50;0.50;;;;;;;16.80;88.15;96385.66;29395;202;63004;-57
2021/06/22 00:50:57;;;;;;;0.50;0.50;;;;;;;16.79;87.97;96386.00;29395;205;63004;-63
2021/06/22 00:51:28;;;;;;;0.43;0.43;;;;;;;16.75;88.33;96378.47;29395;196;63004;-64
2021/06/22 00:51:59;;;;;;;0.50;0.50;;;;;;;16.74;88.24;96376.88;29395;316;63009;-57
2021/06/22 00:52:31;;;;;;;0.50;0.50;;;;;;;16.73;87.87;96379.97;29393;236;64009;-58
2021/06/22 00:53:03;;;;;;;0.50;0.50;;;;;;;16.72;88.07;96381.09;29395;222;63009;-64
2021/06/22 00:53:35;;;;;;;0.50;0.50;;;;;;;16.69;88.13;96366.16;29393;284;64009;-64
2021/06/22 00:54:08;;;;;;;0.50;0.50;;;;;;;16.71;88.12;96374.84;29395;231;63009;-63
2021/06/22 00:54:40;;;;;;;0.50;0.50;;;;;;;16.72;88.15;96375.63;29395;257;63011;-62
2021/06/22 00:55:13;;;;;;;0.50;0.50;;;;;;;16.71;88.42;96368.56;29395;213;63009;-57
2021/06/22 00:55:47;;;;;;;0.50;0.50;;;;;;;16.69;88.42;96377.12;29394;197;64009;-63
2021/06/22 00:56:19;;;;;;;0.50;0.50;;;;;;;16.69;88.61;96368.09;29395;205;63009;-63
2021/06/22 00:56:50;;;;;;;0.50;0.50;;;;;;;16.69;88.72;96368.09;29395;214;63004;-56
2021/06/22 00:57:23;;;;;;;0.40;0.40;;;;;;;16.69;88.33;96373.56;29395;225;63009;-56
2021/06/22 00:58:07;;;;;;;0.50;0.50;;;;;;;16.69;88.49;96370.84;29395;260;63004;-64
2021/06/22 00:58:38;;;;;;;0.60;0.60;;;;;;;16.69;88.84;96368.91;29394;225;64013;-63
2021/06/22 00:59:10;;;;;;;0.40;0.40;;;;;;;16.69;88.89;96370.84;29395;228;63017;-57
2021/06/22 00:59:42;;;;;;;0.50;0.50;;;;;;;16.69;88.70;96368.09;29395;217;63009;-56
2021/06/22 01:00:14;;;;;;;0.60;0.60;;;;;;;16.68;88.89;96361.81;29395;269;63005;-58
2021/06/22 01:00:45;;;;;;;0.50;0.50;;;;;;;16.68;88.61;96367.31;29395;229;63009;-56
2021/06/22 01:01:20;;;;;;;0.50;0.50;;;;;;;16.69;88.64;96366.16;29394;239;64009;-61
2021/06/22 01:01:51;;;;;;;0.50;0.50;;;;;;;16.68;89.11;96364.56;29394;198;64008;-63
2021/06/22 01:02:22;;;;;;;0.50;0.50;;;;;;;16.69;89.22;96368.91;29395;283;63005;-57
2021/06/22 01:02:55;;;;;;;0.50;0.50;;;;;;;16.69;89.03;96359.88;29395;247;63009;-64
2021/06/22 01:03:26;;;;;;;0.40;0.40;;;;;;;16.69;89.02;96355.19;29395;202;63004;-57
2021/06/22 01:03:58;;;;;;;0.50;0.50;;;;;;;16.70;88.88;96362.28;29395;216;63009;-62
2021/06/22 01:04:32;;;;;;;0.50;0.50;;;;;;;16.70;89.07;96356.78;29395;204;63004;-63
2021/06/22 01:05:05;;;;;;;0.50;0.50;;;;;;;16.70;89.12;96358.75;29395;232;63009;-63
2021/06/22 01:05:36;;;;;;;0.40;0.40;;;;;;;16.70;89.28;96356.78;29395;223;63004;-56
2021/06/22 01:06:10;;;;;;;0.43;0.43;;;;;;;16.70;89.48;96356.78;29395;228;63008;-63
2021/06/22 01:06:41;;;;;;;0.40;0.40;;;;;;;16.71;89.23;96363.88;29394;224;64008;-57
2021/06/22 01:07:17;;;;;;;0.50;0.50;;;;;;;16.71;89.29;96363.88;29395;216;63009;-63
2021/06/22 01:07:54;;;;;;;0.40;0.40;;;;;;;16.72;89.24;96362.72;29395;212;63005;-56
2021/06/22 01:08:26;;;;;;;0.40;0.40;;;;;;;16.74;89.12;96368.66;29395;236;63009;-63
2021/06/22 01:08:57;;;;;;;0.40;0.40;;;;;;;16.77;89.21;96366.37;29395;219;63005;-57
2021/06/22 01:09:29;;;;;;;0.40;0.40;;;;;;;16.79;88.93;96364.09;29395;219;63009;-58
2021/06/22 01:10:01;;;;;;;0.40;0.40;;;;;;;16.81;88.91;96372.78;29395;364;63012;-57
2021/06/22 01:10:33;;;;;;;0.40;0.40;;;;;;;16.82;88.75;96374.38;29395;297;63009;-58
2021/06/22 01:11:05;;;;;;;0.40;0.40;;;;;;;16.82;89.18;96377.09;29395;203;63004;-57
2021/06/22 01:11:38;;;;;;;0.50;0.50;;;;;;;16.83;89.18;96376.75;29395;251;63009;-57
2021/06/22 01:12:10;;;;;;;0.50;0.50;;;;;;;16.84;89.10;96372.09;29394;250;64009;-57
2021/06/22 01:12:42;;;;;;;0.50;0.50;;;;;;;16.83;89.02;96375.97;29395;210;63009;-57
2021/06/22 01:13:13;;;;;;;0.50;0.50;;;;;;;16.82;89.23;96379.84;29395;285;63004;-57
2021/06/22 01:13:44;;;;;;;0.40;0.40;;;;;;;16.82;88.87;96380.66;29395;222;63009;-56
2021/06/22 01:14:16;;;;;;;0.50;0.50;;;;;;;16.82;89.21;96374.38;29395;203;63005;-56
2021/06/22 01:14:47;;;;;;;0.50;0.50;;;;;;;16.81;89.06;96378.25;29395;227;63009;-56
2021/06/22 01:15:21;;;;;;;0.50;0.50;;;;;;;16.79;89.24;96370.38;29394;225;64009;-62
2021/06/22 01:15:53;;;;;;;0.50;0.50;;;;;;;16.77;89.03;96371.84;29395;226;63009;-63
2021/06/22 01:16:26;;;;;;;0.50;0.50;;;;;;;16.75;89.10;96369.47;29394;233;64009;-57
2021/06/22 01:16:57;;;;;;;0.50;0.50;;;;;;;16.75;88.99;96369.47;29395;211;63009;-58
2021/06/22 01:17:29;;;;;;;0.50;0.50;;;;;;;16.75;89.03;96381.22;29395;212;63006;-57
2021/06/22 01:18:02;;;;;;;0.50;0.50;;;;;;;16.75;89.00;96375.75;29395;215;63009;-58
2021/06/22 01:18:34;;;;;;;0.50;0.50;;;;;;;16.77;89.20;96377.34;29395;284;63011;-57
2021/06/22 01:19:08;;;;;;;0.50;0.50;;;;;;;16.77;88.77;96378.13;29395;212;63009;-58
2021/06/22 01:19:40;;;;;;;0.50;0.50;;;;;;;16.77;88.98;96377.34;29394;257;64009;-62
2021/06/22 01:20:13;;;;;;;0.50;0.50;;;;;;;16.79;88.96;96380.53;29395;196;63009;-55
2021/06/22 01:20:47;;;;;;;0.50;0.50;;;;;;;16.79;88.74;96381.34;29395;283;63004;-62
2021/06/22 01:21:19;;;;;;;0.50;0.50;;;;;;;16.79;88.51;96383.28;29395;228;63009;-62
2021/06/22 01:21:51;;;;;;;0.50;0.50;;;;;;;16.78;89.00;96374.25;29395;212;63005;-61
2021/06/22 01:22:23;;;;;;;0.45;0.45;;;;;;;16.79;88.61;96375.06;29395;228;63009;-62
2021/06/22 01:22:58;;;;;;;0.50;0.50;;;;;;;16.80;88.77;96376.66;29395;283;63005;-61
2021/06/22 01:23:29;;;;;;;0.50;0.50;;;;;;;16.79;88.89;96380.53;29395;241;63009;-63
2021/06/22 01:24:11;;;;;;;0.50;0.50;;;;;;;16.75;88.65;96375.75;29395;261;63005;-62
2021/06/22 01:24:43;;;;;;;0.50;0.50;;;;;;;16.75;88.85;96375.75;29394;205;64007;-62
2021/06/22 01:25:15;;;;;;;0.50;0.50;;;;;;;16.77;88.96;96388.28;29395;211;63013;-62
2021/06/22 01:25:46;;;;;;;0.50;0.50;;;;;;;16.77;88.57;96389.09;29394;210;64009;-62
2021/06/22 01:26:18;;;;;;;0.50;0.50;;;;;;;16.78;88.66;96385.22;29395;240;63004;-62
2021/06/22 01:27:00;;;;;;;0.40;0.40;;;;;;;16.78;88.77;96378.94;29395;197;63009;-63
2021/06/22 01:27:31;;;;;;;0.40;0.40;;;;;;;16.78;89.07;96379.72;29395;230;63004;-62
2021/06/22 01:28:04;;;;;;;0.40;0.40;;;;;;;16.76;89.08;96382.03;29395;224;63014;-61
2021/06/22 01:28:42;;;;;;;0.50;0.50;;;;;;;16.75;89.16;96378.47;29395;215;63004;-63
2021/06/22 01:29:14;;;;;;;0.40;0.40;;;;;;;16.75;88.83;96383.97;29394;226;64014;-62
2021/06/22 01:29:45;;;;;;;0.50;0.50;;;;;;;16.75;89.10;96381.22;29395;219;63005;-62
2021/06/22 01:30:18;;;;;;;0.50;0.50;;;;;;;16.77;89.17;96377.34;29394;205;64014;-62
2021/06/22 01:30:49;;;;;;;0.50;0.50;;;;;;;16.76;89.13;96379.28;29395;252;63005;-63
2021/06/22 01:31:20;;;;;;;0.50;0.50;;;;;;;16.74;89.03;96368.66;29395;213;63009;-63
2021/06/22 01:31:52;;;;;;;0.50;0.50;;;;;;;16.73;89.22;96369.81;29395;212;63005;-56
2021/06/22 01:32:23;;;;;;;0.50;0.50;;;;;;;16.74;88.92;96378.81;29395;232;63009;-62
2021/06/22 01:32:56;;;;;;;0.50;0.50;;;;;;;16.73;89.29;96372.53;29395;208;63004;-63
2021/06/22 01:33:27;;;;;;;0.57;0.57;;;;;;;16.73;89.11;96372.53;29394;218;64013;-63
2021/06/22 01:33:58;;;;;;;0.40;0.40;;;;;;;16.73;88.90;96369.81;29395;233;63004;-64
2021/06/22 01:34:30;;;;;;;0.40;0.40;;;;;;;16.73;88.89;96377.22;29395;227;63009;-64
2021/06/22 01:35:02;;;;;;;0.45;0.45;;;;;;;16.72;88.96;96376.44;29395;218;63004;-62
2021/06/22 01:35:33;;;;;;;0.40;0.40;;;;;;;16.72;88.94;96368.22;29395;205;63008;-63
2021/06/22 01:36:05;;;;;;;0.50;0.50;;;;;;;16.72;89.11;96376.44;29395;205;63004;-56
2021/06/22 01:36:38;;;;;;;0.50;0.50;;;;;;;16.70;89.18;96367.75;29395;243;63018;-63
2021/06/22 01:37:10;;;;;;;0.40;0.40;;;;;;;16.69;89.01;96371.63;29395;239;63005;-60
2021/06/22 01:37:53;;;;;;;0.40;0.40;;;;;;;16.69;89.10;96379.84;29395;200;63009;-57
2021/06/22 01:38:24;;;;;;;0.50;0.50;;;;;;;16.66;88.86;96364.09;29394;222;64009;-62
2021/06/22 01:38:56;;;;;;;0.50;0.50;;;;;;;16.66;89.04;96377.81;29394;262;64013;-62
2021/06/22 01:39:27;;;;;;;0.50;0.50;;;;;;;16.65;89.36;96369.94;29395;222;63005;-61
2021/06/22 01:40:06;;;;;;;0.40;0.40;;;;;;;16.63;89.05;96370.25;29395;202;63009;-63
2021/06/22 01:40:48;;;;;;;0.40;0.40;;;;;;;16.63;89.35;96375.72;29395;197;63004;-57
2021/06/22 01:41:20;;;;;;;0.40;0.40;;;;;;;16.64;89.16;96380.09;29395;230;63009;-62
2021/06/22 01:41:51;;;;;;;0.40;0.40;;;;;;;16.64;89.21;96373.81;29395;244;63004;-62
2021/06/22 01:42:23;;;;;;;0.40;0.40;;;;;;;16.63;89.07;96378.47;29395;350;63009;-63
2021/06/22 01:42:58;;;;;;;0.40;0.40;;;;;;;16.62;88.99;96374.16;29394;206;64009;-63
2021/06/22 01:43:30;;;;;;;0.40;0.40;;;;;;;16.61;89.36;96369.00;29395;210;63008;-63
2021/06/22 01:44:02;;;;;;;0.50;0.50;;;;;;;16.61;89.12;96375.28;29395;222;63005;-61
2021/06/22 01:44:34;;;;;;;0.43;0.43;;;;;;;16.60;89.11;96373.69;29395;368;63009;-60
2021/06/22 01:45:07;;;;;;;0.40;0.40;;;;;;;16.60;89.30;96373.69;29395;210;63008;-62
2021/06/22 01:45:38;;;;;;;0.40;0.40;;;;;;;16.57;88.75;96368.91;29395;213;63009;-62
2021/06/22 01:46:09;;;;;;;0.40;0.40;;;;;;;16.57;88.97;96373.56;29395;246;63005;-62
2021/06/22 01:46:41;;;;;;;0.40;0.40;;;;;;;16.55;88.73;96368.44;29395;234;63009;-62
2021/06/22 01:47:13;;;;;;;0.45;0.45;;;;;;;16.53;89.04;96373.47;29394;207;64009;-56
2021/06/22 01:47:45;;;;;;;0.40;0.40;;;;;;;16.54;88.85;96375.06;29395;222;63009;-62
2021/06/22 01:48:16;;;;;;;0.40;0.40;;;;;;;16.54;88.96;96374.25;29395;205;63004;-63
2021/06/22 01:48:48;;;;;;;0.50;0.50;;;;;;;16.54;88.91;96371.53;29395;214;63009;-62
2021/06/22 01:49:22;;;;;;;0.50;0.50;;;;;;;16.53;89.17;96369.94;29395;254;63004;-56
2021/06/22 01:49:58;;;;;;;0.45;0.45;;;;;;;16.52;89.19;96377.34;29395;237;63009;-56
2021/06/22 01:50:31;;;;;;;0.40;0.40;;;;;;;16.50;89.39;96374.16;29394;316;64009;-63
2021/06/22 01:51:03;;;;;;;0.95;0.95;;;;;;;16.50;89.17;96374.16;29395;232;63008;-62
2021/06/22 01:51:34;;;;;;;0.50;0.50;;;;;;;16.51;89.28;96375.75;29395;197;63005;-63
2021/06/22 01:52:06;;;;;;;0.40;0.40;;;;;;;16.50;89.34;96371.41;29395;240;63009;-63
2021/06/22 01:52:38;;;;;;;0.40;0.40;;;;;;;16.51;89.23;96370.28;29395;218;63005;-62
2021/06/22 01:53:10;;;;;;;0.40;0.40;;;;;;;16.51;89.14;96369.47;29395;250;63009;-64
2021/06/22 01:53:41;;;;;;;0.50;0.50;;;;;;;16.50;89.45;96370.59;29395;259;63005;-61
2021/06/22 01:54:12;;;;;;;0.50;0.50;;;;;;;16.49;89.00;96372.56;29395;218;63009;-62
2021/06/22 01:54:43;;;;;;;0.45;0.45;;;;;;;16.48;89.36;96368.22;29395;253;63005;-62
2021/06/22 01:56:05;;;;;;;0.50;0.50;;;;;;;16.48;88.83;96375.63;29394;197;64009;-64
2021/06/22 01:56:38;;;;;;;0.47;0.47;;;;;;;16.48;88.79;96365.47;29395;212;63009;-63
2021/06/22 01:57:09;;;;;;;0.50;0.50;;;;;;;16.48;89.10;96367.41;29395;287;63004;-63
2021/06/22 01:57:40;;;;;;;0.50;0.50;;;;;;;16.47;89.08;96369.34;29395;239;63009;-62
2021/06/22 01:58:15;;;;;;;0.40;0.40;;;;;;;16.47;88.98;96366.63;29395;252;63004;-57
2021/06/22 01:58:46;;;;;;;0.47;0.47;;;;;;;16.48;88.70;96372.87;29395;207;63008;-63
2021/06/22 01:59:17;;;;;;;0.40;0.40;;;;;;;16.47;88.95;96377.56;29395;206;63005;-62
2021/06/22 01:59:50;;;;;;;0.50;0.50;;;;;;;16.46;88.89;96370.50;29394;219;64014;-63
2021/06/22 02:00:25;;;;;;;0.50;0.50;;;;;;;16.43;88.90;96371.97;29395;224;63009;-63
2021/06/22 02:00:59;;;;;;;0.50;0.50;;;;;;;16.43;88.86;96373.91;29395;202;63009;-61
2021/06/22 02:01:32;;;;;;;0.40;0.40;;;;;;;16.41;88.98;96376.19;29395;220;63005;-62
2021/06/22 02:02:03;;;;;;;0.50;0.50;;;;;;;16.39;88.89;96373.81;29395;222;63009;-63
2021/06/22 02:02:35;;;;;;;0.50;0.50;;;;;;;16.39;89.22;96379.28;29395;203;63005;-61
2021/06/22 02:03:07;;;;;;;0.40;0.40;;;;;;;16.36;89.02;96379.97;29395;199;63009;-63
2021/06/22 02:03:38;;;;;;;0.50;0.50;;;;;;;16.36;88.85;96381.91;29395;198;63004;-63
2021/06/22 02:04:11;;;;;;;0.50;0.50;;;;;;;16.35;89.03;96383.03;29395;235;63009;-62
2021/06/22 02:04:44;;;;;;;0.50;0.50;;;;;;;16.35;89.29;96383.03;29395;220;63004;-63
2021/06/22 02:05:16;;;;;;;0.70;0.70;;;;;;;16.31;89.32;96379.38;29394;215;64004;-63
2021/06/22 02:05:49;;;;;;;0.40;0.40;;;;;;;16.29;89.55;96387.13;29395;198;63004;-63
2021/06/22 02:06:20;;;;;;;0.47;0.47;;;;;;;16.27;89.33;96373.81;29395;212;63008;-62
2021/06/22 02:06:52;;;;;;;0.40;0.40;;;;;;;16.27;89.58;96378.50;29395;216;63005;-61
2021/06/22 02:07:23;;;;;;;0.95;0.95;;;;;;;16.24;89.13;96379.19;29395;235;63009;-61
2021/06/22 02:07:54;;;;;;;0.40;0.40;;;;;;;16.22;89.49;96384.19;29395;268;63012;-62
2021/06/22 02:08:26;;;;;;;0.50;0.50;;;;;;;16.20;89.36;96384.53;29395;228;63009;-63
2021/06/22 02:08:57;;;;;;;0.40;0.40;;;;;;;16.19;89.44;96385.66;29395;199;63005;-62
2021/06/22 02:09:28;;;;;;;0.50;0.50;;;;;;;16.19;89.71;96384.88;29395;222;63009;-58
2021/06/22 02:10:00;;;;;;;0.50;0.50;;;;;;;16.19;89.34;96385.66;29394;209;64009;-63
2021/06/22 02:10:31;;;;;;;0.50;0.50;;;;;;;16.20;89.35;96391.94;29395;235;63009;-62
2021/06/22 02:11:03;;;;;;;0.50;0.50;;;;;;;16.19;89.33;96379.41;29394;212;64009;-62
2021/06/22 02:11:34;;;;;;;0.50;0.50;;;;;;;16.21;89.23;96393.53;29395;319;63009;-62
2021/06/22 02:12:06;;;;;;;0.40;0.40;;;;;;;16.20;89.57;96391.94;29395;204;63004;-57
2021/06/22 02:12:38;;;;;;;0.50;0.50;;;;;;;16.21;89.49;96394.34;29395;203;63008;-62
2021/06/22 02:13:12;;;;;;;0.40;0.40;;;;;;;16.21;89.73;96394.34;29395;243;63004;-62
2021/06/22 02:13:43;;;;;;;0.50;0.50;;;;;;;16.19;89.60;96396.63;29395;214;63008;-62
2021/06/22 02:14:15;;;;;;;0.50;0.50;;;;;;;16.20;89.64;96392.75;29395;210;63005;-62
2021/06/22 02:14:49;;;;;;;0.50;0.50;;;;;;;16.21;89.22;96396.28;29395;207;63009;-63
2021/06/22 02:15:21;;;;;;;0.50;0.50;;;;;;;16.21;89.55;96399.81;29394;215;64009;-61
2021/06/22 02:15:52;;;;;;;0.40;0.40;;;;;;;16.22;89.49;96400.62;29395;222;63009;-61
2021/06/22 02:16:23;;;;;;;0.40;0.40;;;;;;;16.20;89.64;96397.41;29395;219;63005;-62
2021/06/22 02:16:54;;;;;;;0.45;0.45;;;;;;;16.20;89.60;96403.69;29395;209;63009;-61
2021/06/22 02:17:26;;;;;;;0.40;0.40;;;;;;;16.21;89.71;96401.75;29395;224;63004;-62
2021/06/22 02:17:58;;;;;;;0.40;0.40;;;;;;;16.20;89.52;96394.69;29395;276;63009;-61
2021/06/22 02:18:30;;;;;;;0.40;0.40;;;;;;;16.21;89.67;96404.50;29395;202;63004;-63
2021/06/22 02:19:01;;;;;;;0.43;0.43;;;;;;;16.20;89.48;96402.87;29395;243;63009;-63
2021/06/22 02:19:32;;;;;;;0.40;0.40;;;;;;;16.21;89.71;96407.22;29394;258;64009;-57
2021/06/22 02:20:06;;;;;;;0.43;0.43;;;;;;;16.19;89.47;96401.28;29395;241;63008;-60
2021/06/22 02:20:40;;;;;;;0.40;0.40;;;;;;;16.18;89.79;96399.69;29395;228;63004;-63
2021/06/22 02:21:12;;;;;;;0.47;0.47;;;;;;;16.17;89.50;96398.91;29395;213;63009;-62
2021/06/22 02:21:43;;;;;;;0.40;0.40;;;;;;;16.17;89.82;96398.09;29395;246;63005;-62
2021/06/22 02:22:14;;;;;;;0.40;0.40;;;;;;;16.18;89.63;96399.69;29395;216;63009;-57
2021/06/22 02:22:45;;;;;;;0.50;0.50;;;;;;;16.18;89.61;96402.44;29395;197;63005;-62
2021/06/22 02:23:16;;;;;;;0.45;0.45;;;;;;;16.16;89.38;96393.75;29395;242;63009;-57
2021/06/22 02:23:47;;;;;;;0.40;0.40;;;;;;;16.12;89.50;96393.63;29395;224;63005;-62
2021/06/22 02:24:19;;;;;;;0.40;0.40;;;;;;;16.11;89.59;96402.19;29394;237;64013;-57
2021/06/22 02:24:51;;;;;;;0.40;0.40;;;;;;;16.11;89.56;96400.25;29395;203;63005;-61
2021/06/22 02:25:22;;;;;;;0.40;0.40;;;;;;;16.12;89.29;96401.06;29395;200;63009;-62
2021/06/22 02:25:53;;;;;;;0.40;0.40;;;;;;;16.14;89.69;96404.25;29395;202;63004;-60
2021/06/22 02:26:25;;;;;;;0.43;0.43;;;;;;;16.13;89.65;96397.19;29394;202;64013;-62
2021/06/22 02:26:56;;;;;;;0.40;0.40;;;;;;;16.14;89.31;96398.78;29395;202;63004;-61
2021/06/22 02:27:30;;;;;;;0.40;0.40;;;;;;;16.14;89.58;96401.50;29395;204;63008;-61
2021/06/22 02:28:25;;;;;;;0.45;0.45;;;;;;;16.15;89.79;96397.63;29394;229;64008;-61
2021/06/22 02:28:56;;;;;;;0.50;0.50;;;;;;;16.15;89.74;96395.69;29394;213;64014;-62
2021/06/22 02:29:28;;;;;;;0.50;0.50;;;;;;;16.15;89.52;96406.66;29395;211;63005;-61
2021/06/22 02:29:59;;;;;;;0.50;0.50;;;;;;;16.16;89.32;96397.28;29395;287;63014;-62
2021/06/22 02:30:32;;;;;;;0.62;0.62;;;;;;;16.17;89.58;96392.62;29395;286;63005;-57
2021/06/22 02:31:03;;;;;;;0.40;0.40;;;;;;;16.17;89.75;96398.09;29395;285;63009;-63
2021/06/22 02:31:35;;;;;;;0.40;0.40;;;;;;;16.17;89.52;96392.62;29395;203;63005;-62
2021/06/22 02:32:07;;;;;;;0.40;0.40;;;;;;;16.19;89.47;96384.88;29395;231;63009;-57
2021/06/22 02:32:39;;;;;;;0.40;0.40;;;;;;;16.21;89.39;96388.87;29395;197;63004;-62
2021/06/22 02:33:11;;;;;;;0.40;0.40;;;;;;;16.23;88.87;96394.81;29395;314;63009;-57
2021/06/22 02:33:42;;;;;;;0.47;0.47;;;;;;;16.25;88.69;96391.72;29395;203;63004;-57
2021/06/22 02:34:13;;;;;;;0.40;0.40;;;;;;;16.24;88.91;96390.94;29394;202;64013;-62
2021/06/22 02:34:45;;;;;;;0.40;0.40;;;;;;;16.25;88.93;96394.47;29395;214;63008;-61